Weather observations for the past three days for
Pella, Pella Municipal Airport
Imperial (Metric)
Date Time (cdt) Wind (mph) Vis. (mi.) Weather Sky Cond. Temperature (ºF) Relative Humidity Wind Chill (°F) Heat Index (°F) Pressure Precipitation (in)
Air Dwpt 6 hour altimeter (in) sea level (mb) 1 hr 3 hr 6 hr
Max. Min.
10 09:35 NW 5 10.00 Fair CLR 57.7 29.5 34% 30.16 0.0
10 09:15 Calm 10.00 Fair CLR 56.3 30.2 37% 30.15 0.0
10 08:55 W 3 10.00 Fair CLR 54.9 30.7 40% 30.16 0.0
10 08:35 Calm 10.00 Fair CLR 52.3 28.9 41% 30.15 0.0
10 08:15 Calm 10.00 Fair CLR 50.9 29.5 44% 30.14 0.0
10 07:55 NW 3 10.00 Fair CLR 49.3 29.1 46% 30.14 0.0
10 07:35 Calm 10.00 Fair CLR 46.8 28.8 50% 30.13 0.0
10 07:15 Calm 10.00 Fair CLR 44.8 29.8 56% 30.13 0.0
10 06:55 Calm 10.00 Fair CLR 41.7 29.1 51.1 39.7 61% 30.12 0.0
10 06:35 Calm 10.00 Fair CLR 40.5 27.1 59% 30.12 0.0
10 06:15 Calm 10.00 Fair CLR 40.6 26.8 58% 30.11 0.0
10 05:55 N 3 10.00 Fair CLR 40.6 26.8 58% 30.1 0.0
10 05:35 N 3 10.00 Fair CLR 40.8 27.3 59% 30.1 0.0
10 05:15 N 3 10.00 Fair CLR 42.4 25.9 52% 30.09 0.0
10 04:55 N 3 10.00 Fair CLR 43 25.5 50% 30.08 0.0
10 04:35 N 3 10.00 Fair CLR 43 25.9 51% 30.08 0.0
10 04:15 N 5 10.00 Fair CLR 45 25.7 47% 43 30.07 0.0
10 03:55 N 5 10.00 Fair CLR 45.1 25.5 46% 43 30.07 0.0
10 03:35 NW 5 10.00 Fair CLR 46.4 25 43% 45 30.07 0.0
10 03:15 NW 6 10.00 Fair CLR 46.8 25.3 43% 44 30.07 0.0
10 02:55 N 6 10.00 Fair CLR 45.5 25.5 46% 43 30.05 0.0
10 02:35 Calm 10.00 Fair CLR 45 25.7 47% 30.05 0.0
10 02:15 Calm 10.00 Fair CLR 44.6 26.6 49% 30.04 0.0
10 01:55 N 5 10.00 Fair CLR 47.3 26.1 44% 46 30.03 0.0
10 01:35 N 3 10.00 Fair CLR 48.6 25.9 41% 30.02 0.0
10 01:15 N 6 10.00 Fair CLR 50 25.2 38% 48 30.01 0.0
10 00:55 N 7 10.00 Fair CLR 50 25.3 68.9 49.6 38% 48 30 0.0
10 00:35 N 6 10.00 Fair CLR 50.9 25.9 38% 29.99 0.0
10 00:15 N 5 10.00 Fair CLR 52.3 25.5 35% 29.98 0.0
09 23:55 N 7 10.00 Fair CLR 53.6 25 33% 29.97 0.0
09 23:35 N 7 10.00 Fair CLR 53.1 25.9 35% 29.97 0.0
09 23:15 N 6 10.00 Fair CLR 54 26.4 35% 29.96 0.0
09 22:55 N 8 10.00 Fair CLR 55.9 26.2 32% 29.96 0.0
09 22:35 N 8 10.00 Fair CLR 56.5 27 32% 29.95 0.0
09 22:15 N 6 10.00 Fair CLR 57.4 27.1 31% 29.94 0.0
09 21:55 N 8 10.00 Fair CLR 58.8 27.3 30% 29.93 0.0
09 21:35 N 7 G 16 10.00 Fair CLR 59.9 27.9 30% 29.92 0.0
09 21:15 N 8 10.00 Fair CLR 60.6 28.8 30% 29.9 0.0
09 20:55 N 6 10.00 Fair CLR 61.2 29.5 30% 29.89 0.0
09 20:35 N 8 10.00 Fair CLR 62.6 29.7 29% 29.88 0.0
09 20:15 N 6 10.00 Fair CLR 63.7 30.2 28% 29.87 0.0
09 19:55 N 7 10.00 Fair CLR 65.3 30 27% 29.86 0.0
09 19:35 N 12 G 20 10.00 Fair CLR 66.9 30 25% 29.85 0.0
09 19:15 N 10 G 18 10.00 Partly Cloudy SCT120 67.5 32.2 27% 29.84 0.0
09 18:55 NW 12 G 20 10.00 Partly Cloudy SCT120 68.2 32.9 76.3 68 27% 29.83 0.0
09 18:35 N 8 10.00 Fair CLR 68.9 34 28% 29.83 0.0
09 18:15 NW 13 G 18 10.00 Fair CLR 69.8 37.2 30% 29.82 0.0
09 17:55 NW 6 10.00 Fair CLR 68.5 43 40% 29.82 0.0
09 17:35 NW 9 G 17 10.00 Partly Cloudy SCT110 69.6 43 38% 29.81 0.0
09 17:15 NW 13 G 21 10.00 Mostly Cloudy BKN110 68.7 42.3 38% 29.81 0.0
09 16:55 N 7 G 16 10.00 Mostly Cloudy BKN120 69.3 44.4 41% 29.81 0.0
09 16:35 N 8 10.00 Partly Cloudy SCT100 SCT120 68.9 44.6 42% 29.8 0.0
09 16:15 N 10 G 17 10.00 Partly Cloudy SCT100 68.9 44.6 42% 29.8 0.0
09 15:55 N 9 G 18 10.00 Partly Cloudy SCT110 70 44.1 39% 29.79 0.0
09 15:35 N 10 10.00 Partly Cloudy SCT110 69.8 43 38% 29.8 0.0
09 15:15 NW 10 10.00 Mostly Cloudy BKN110 71.1 42.1 35% 29.79 0.0
09 14:55 NW 15 G 22 10.00 Mostly Cloudy BKN120 72.1 38.3 29% 29.78 0.0
09 14:35 NW 10 10.00 Mostly Cloudy BKN120 72.7 36.9 27% 29.77 0.0
09 14:15 NW 12 G 21 10.00 Partly Cloudy SCT120 74.5 36.5 25% 29.77 0.0
09 13:55 NW 12 10.00 Partly Cloudy SCT120 74.8 36.3 25% 29.77 0.0
09 13:35 W 17 G 22 10.00 Mostly Cloudy BKN120 75.4 37.8 26% 77 29.77 0.0
09 13:15 W 14 10.00 Partly Cloudy SCT120 72.9 37 27% 29.76 0.0
09 12:35 W 14 10.00 Partly Cloudy SCT120 73.6 35.8 25% 29.77 0.0
09 12:15 NW 13 G 21 10.00 Partly Cloudy SCT120 73.4 35.4 25% 29.76 0.0
09 11:55 NW 10 G 23 10.00 Fair CLR 72.3 34.5 25% 29.77 0.0
09 11:35 W 14 G 25 10.00 Fair CLR 71.8 34.3 25% 29.77 0.0
09 11:15 NW 13 G 20 10.00 Fair CLR 70.7 33.6 26% 29.77 0.0
09 10:55 NW 16 G 22 10.00 Fair CLR 70.3 36.3 29% 29.77 0.0
09 10:35 NW 15 G 23 10.00 Fair CLR 70 40.1 34% 29.76 0.0
09 10:15 NW 13 10.00 Fair CLR 68.9 42.1 38% 29.75 0.0
09 09:55 W 10 10.00 Fair CLR 66.9 42.6 41% 29.75 0.0
09 09:35 W 7 10.00 Fair CLR 65.1 43.7 46% 29.74 0.0
09 09:15 SW 6 10.00 Fair CLR 62.8 44.4 51% 29.73 0.0
09 08:55 SW 8 10.00 Fair CLR 60.3 45 57% 29.73 0.0
09 08:15 W 6 10.00 Fair CLR 57 45.3 65% 29.73 0.0
09 07:55 W 6 10.00 Fair CLR 55.6 46.9 73% 29.73 0.0
09 07:35 SW 6 10.00 Fair CLR 53.6 47.8 81% 29.73 0.0
09 07:15 SW 3 10.00 Fair CLR 52.7 48.4 85% 29.72 0.0
09 06:55 SW 3 10.00 Fair CLR 50.9 47.3 57.4 48.2 88% 29.71 0.0
09 06:35 W 5 10.00 Fair CLR 49.1 46.4 90% 48 29.71 0.0
09 06:15 W 5 10.00 Fair CLR 48.7 46.2 91% 47 29.7 0.0
09 05:55 NW 5 10.00 Fair CLR 48.7 46.8 93% 47 29.7 0.0
09 05:35 SW 3 10.00 Fair CLR 50.4 47.3 89% 29.69 0.0
09 05:15 SW 6 10.00 Fair CLR 49.1 46.2 90% 47 29.68 0.0
09 04:35 W 6 10.00 Fair CLR 52.5 48 85% 29.7 0.0
09 04:15 W 7 10.00 Fair CLR 53.1 48 83% 29.69 0.0
09 03:55 W 9 10.00 Fair CLR 53.6 48 82% 29.69 0.0
09 03:35 W 9 10.00 Fair CLR 54.1 48.6 82% 29.69 0.0
09 03:15 W 9 10.00 Fair CLR 54.3 49.3 83% 29.69 0.0
09 02:55 W 8 10.00 Fair CLR 55.4 49.3 80% 29.69 0.0
09 02:35 W 9 10.00 Fair CLR 55.9 49.3 78% 29.69 0.0
09 02:15 W 8 G 16 10.00 Fair CLR 56.7 49.6 77% 29.7 0.0
09 01:55 SW 9 10.00 Partly Cloudy SCT120 56.3 49.5 78% 29.7 0.0
09 01:35 SW 9 10.00 Partly Cloudy SCT120 56.8 49.6 77% 29.7 0.0
09 01:15 SW 9 10.00 Fair CLR 56.7 49.6 77% 29.7 0.0
09 00:55 SW 7 10.00 Fair CLR 56.7 50 71.1 56.7 79% 29.7 0.0
09 00:35 SW 10 10.00 Fair CLR 56.8 50.2 79% 29.7 0.0
09 00:15 SW 10 10.00 Fair CLR 57.4 50.4 78% 29.7 0.0
08 23:55 SW 13 G 17 10.00 Fair CLR 57.6 50.4 77% 29.7 0.0
08 23:35 SW 10 10.00 Fair CLR 57.6 50.2 77% 29.7 0.0
08 23:15 S 9 10.00 Fair CLR 57.7 50 76% 29.7 0.0
08 22:55 S 9 10.00 Fair CLR 57.7 50 76% 29.7 0.0
08 22:35 S 9 10.00 Fair CLR 58.6 49.8 73% 29.71 0.0
08 22:15 S 9 10.00 Fair CLR 58.8 49.6 72% 29.71 0.0
08 21:55 S 7 10.00 Fair CLR 60.8 49.8 67% 29.71 0.0
08 21:35 S 8 10.00 Partly Cloudy SCT100 SCT120 62.1 49.5 64% 29.71 0.0
08 21:15 SW 10 10.00 Mostly Cloudy SCT080 BKN110 63.5 48.7 59% 29.71 0.0
08 20:55 SW 13 G 17 10.00 Partly Cloudy SCT120 63.7 47.8 57% 29.7 0.0
08 20:35 S 10 10.00 Fair CLR 64.4 45.9 51% 29.69 0.0
08 20:15 S 8 10.00 Fair CLR 65.5 45.7 49% 29.68 0.0
08 19:55 S 9 10.00 Fair CLR 67.3 44.2 44% 29.67 0.0
08 19:35 S 6 10.00 Fair CLR 68.5 41 37% 29.67 0.0
08 19:15 S 8 10.00 Fair CLR 70.2 40.1 34% 29.67 0.0
08 18:55 SW 10 10.00 Fair CLR 71.2 40.3 73.8 68.7 33% 29.68 0.0
08 18:35 SW 9 10.00 Fair CLR 72 40.1 32% 29.69 0.0
08 18:15 SW 9 10.00 Fair CLR 72.5 39.7 31% 29.69 0.0
08 17:55 SW 9 10.00 Fair CLR 73 34.5 24% 29.69 0.0
08 17:35 W 5 10.00 Fair CLR 72.9 33.6 24% 29.7 0.0
08 17:15 SW 8 10.00 Fair CLR 72.7 34.3 25% 29.7 0.0
08 16:55 W 6 10.00 Fair CLR 73.6 34.7 24% 29.71 0.0
08 16:35 SW 9 10.00 Fair CLR 72.9 33.4 24% 29.71 0.0
08 16:15 W 5 10.00 Fair CLR 72.9 35.2 25% 29.72 0.0
08 15:55 S 9 10.00 Fair CLR 72.1 36.5 27% 29.72 0.0
08 15:35 S 8 10.00 Fair CLR 71.8 36.5 28% 29.73 0.0
08 15:15 S 3 10.00 Fair CLR 71.6 36 27% 29.74 0.0
08 14:55 W 8 10.00 Fair CLR 71.2 36 28% 29.75 0.0
08 14:35 SW 9 10.00 Fair CLR 72 38.3 29% 29.75 0.0
08 14:15 W 7 10.00 Fair CLR 71.1 37.4 29% 29.76 0.0
08 13:55 NW 7 10.00 Fair CLR 70.7 34.9 27% 29.76 0.0
08 13:35 NW 6 10.00 Fair CLR 70.9 33.3 25% 29.77 0.0
08 13:15 SW 5 10.00 Fair CLR 70 30.2 23% 29.77 0.0
08 12:55 W 9 10.00 Fair CLR 69.6 30.4 70.5 47.7 23% 29.78 0.0
08 12:35 SW 7 10.00 Fair CLR 69.4 34.5 28% 29.78 0.0
08 12:15 W 6 10.00 Fair CLR 68.7 36 30% 29.79 0.0
08 11:55 S 7 10.00 Fair CLR 68.7 37 31% 29.8 0.0
08 11:35 S 6 10.00 Fair CLR 67.5 35.4 31% 29.81 0.0
08 11:15 E 3 10.00 Fair CLR 66.6 38.3 35% 29.81 0.0
08 10:55 S 3 10.00 Fair CLR 64.9 45.1 49% 29.82 0.0
08 10:35 E 3 10.00 Fair CLR 63.1 47.5 57% 29.82 0.0
08 10:15 SE 3 10.00 Partly Cloudy SCT100 59.7 45.5 60% 29.83 0.0
08 09:55 SE 3 10.00 Mostly Cloudy BKN110 57 44.6 63% 29.82 0.0
08 09:35 S 5 10.00 Overcast OVC100 55.2 44.2 67% 29.83 0.0
08 09:15 S 7 10.00 Overcast OVC100 53.6 43.7 69% 29.84 0.0
08 08:55 S 3 10.00 Mostly Cloudy BKN110 53.4 42.3 66% 29.83 0.0
08 08:35 SE 3 10.00 Partly Cloudy SCT100 52.9 41.7 66% 29.82 0.0
08 08:15 SE 6 10.00 Mostly Cloudy BKN100 BKN120 51.6 40.5 66% 29.82 0.0
08 07:55 SE 6 10.00 Mostly Cloudy BKN120 50.4 38.7 64% 29.82 0.0
08 07:35 E 5 10.00 Partly Cloudy SCT110 50.2 37.9 63% 29.8 0.0
08 07:15 E 8 10.00 Partly Cloudy SCT110 48.9 35.6 60% 46 29.82 0.0
08 06:55 E 6 10.00 Partly Cloudy SCT120 47.7 33.6 54.3 42.1 58% 45 29.82 0.0
08 06:35 E 6 10.00 Partly Cloudy SCT120 47.3 33.8 60% 45 29.82 0.0
08 06:15 E 6 10.00 Partly Cloudy SCT100 47.3 32.5 57% 45 29.82 0.0
08 05:55 E 3 10.00 Fair CLR 43 34.2 71% 29.83 0.0
08 05:35 Calm 10.00 Fair CLR 44.8 31.6 60% 29.83 0.0
08 05:15 NE 3 10.00 Fair CLR 43.3 33.1 67% 29.82 0.0
08 04:55 Calm 10.00 Fair CLR 44.4 32.5 63% 29.83 0.0
08 04:35 Calm 10.00 Fair CLR 46 31.6 57% 29.83 0.0
08 04:15 Calm 10.00 Fair CLR 48.6 31.1 51% 29.83 0.0
08 03:55 E 5 10.00 Fair CLR 49.1 31.3 50% 48 29.81 0.0
08 03:35 NE 5 10.00 Fair CLR 48.6 32.7 54% 47 29.8 0.0
08 03:15 NE 3 10.00 Fair CLR 48.6 34.2 58% 29.81 0.0
08 02:55 NE 5 10.00 Fair CLR 48 37.6 67% 47 29.81 0.0
08 02:35 N 5 10.00 Fair CLR 48.9 39.6 70% 48 29.82 0.0
08 02:15 N 3 10.00 Fair CLR 49.1 40.6 73% 29.82 0.0
08 01:55 Calm 10.00 Fair CLR 51.4 40.6 67% 29.83 0.0
08 01:35 E 6 10.00 Fair CLR 53.8 40.3 60% 29.83 0.0
08 01:15 NE 6 10.00 Fair CLR 53.2 40.6 62% 29.82 0.0
08 00:55 N 5 10.00 Fair CLR 53.8 40.8 66.4 53.2 62% 29.83 0.0
08 00:35 E 5 10.00 Fair CLR 55.9 40.1 55% 29.82 0.0
08 00:15 E 6 10.00 Partly Cloudy SCT080 SCT090 57 39.9 53% 29.82 0.0
07 23:55 E 7 10.00 Partly Cloudy SCT080 SCT090 57.6 39.9 52% 29.83 0.0
07 23:35 E 6 10.00 Partly Cloudy SCT070 SCT100 58.3 39.7 50% 29.83 0.0
07 23:15 E 5 10.00 Mostly Cloudy SCT070 BKN100 59 39.6 49% 29.84 0.0
07 22:55 E 6 10.00 Overcast BKN070 BKN085 OVC100 59.5 39.4 47% 29.84 0.0
07 22:35 E 6 10.00 Overcast BKN080 OVC100 59.5 39.9 48% 29.84 0.0
07 22:15 NE 3 10.00 Overcast BKN080 OVC100 59.9 39.4 47% 29.84 0.0
07 21:55 E 3 7.00 Overcast BKN090 OVC110 59.9 39.6 47% 29.84 0.0
07 21:35 E 5 10.00 Overcast OVC090 59.9 39.7 47% 29.83 0.0
07 21:15 Calm 10.00 Overcast OVC090 60.6 39.4 46% 29.83 0.0
07 20:55 E 3 10.00 Overcast OVC100 61.2 39.4 45% 29.82 0.0
07 20:35 NE 3 10.00 Overcast OVC100 61.5 39.4 44% 29.81 0.0
07 20:15 NE 3 10.00 Mostly Cloudy BKN100 63 39 41% 29.8 0.0
07 19:55 Calm 10.00 Overcast OVC090 64.2 38.8 39% 29.8 0.0
07 19:35 Calm 10.00 Overcast OVC090 65.3 37.6 36% 29.8 0.0
07 19:15 Calm 10.00 Mostly Cloudy BKN100 66.2 37.6 35% 29.79 0.0
07 18:55 Calm 10.00 Mostly Cloudy BKN100 BKN120 66.6 36.1 68.2 59.4 33% 29.79 0.0
07 18:35 Calm 10.00 Overcast OVC100 66.2 38.1 36% 29.79 0.0
07 18:15 Calm 10.00 Mostly Cloudy BKN090 BKN110 65.5 36.7 35% 29.8 0.0
07 17:55 Calm 10.00 Mostly Cloudy SCT100 BKN120 65.7 35.2 32% 29.8 0.0
07 17:35 NW 5 10.00 Mostly Cloudy SCT080 SCT090 BKN120 66.9 37 33% 29.81 0.0
07 17:15 Calm 10.00 Mostly Cloudy SCT070 BKN100 BKN120 66.7 38.8 36% 29.81 0.0
07 16:55 Calm 10.00 Mostly Cloudy SCT060 SCT075 BKN120 65.8 36.9 34% 29.82 0.0
07 16:35 SW 5 10.00 Mostly Cloudy SCT060 SCT075 BKN085 65.5 39 38% 29.82 0.0
07 16:15 W 5 10.00 Mostly Cloudy SCT070 SCT085 BKN110 66.7 37.6 34% 29.82 0.0
07 15:55 W 7 10.00 Mostly Cloudy BKN100 BKN120 65.3 37.4 36% 29.83 0.0
07 15:35 W 6 10.00 Mostly Cloudy BKN110 65.7 37.9 36% 29.83 0.0
07 15:15 Calm 10.00 Mostly Cloudy SCT090 BKN120 66.2 41 40% 29.84 0.0
07 14:55 W 5 10.00 Partly Cloudy SCT090 SCT120 63.9 38.8 40% 29.85 0.0
07 14:35 Calm 10.00 Fair CLR 64.8 40.8 42% 29.85 0.0
07 14:15 W 7 10.00 Fair CLR 64.2 39.4 40% 29.86 0.0
07 13:55 E 3 10.00 Fair CLR 63.1 41.4 45% 29.86 0.0
07 13:35 NW 3 10.00 Fair CLR 61.3 42.1 49% 29.87 0.0
07 13:15 Calm 10.00 Partly Cloudy SCT100 60.1 41.5 51% 29.88 0.0
07 12:55 SW 5 10.00 Partly Cloudy SCT090 59.9 42.4 60.1 43.7 53% 29.89 0.0 0.01
07 12:35 Calm 10.00 Mostly Cloudy SCT060 BKN090 57.2 40.5 54% 29.91 0.0
07 12:15 SW 6 10.00 Overcast OVC090 56.3 41.9 59% 29.92 0.0
07 11:55 SW 3 10.00 Overcast OVC090 52.3 40.8 65% 29.92 0.0
07 11:35 Calm 10.00 Overcast OVC090 51.4 40.3 66% 29.93 0.0
07 11:15 Calm 10.00 Overcast OVC090 51.1 41 69% 29.93 0.0
07 10:55 SW 6 10.00 Overcast OVC100 50.2 41 71% 29.93 0.0
07 10:35 SW 8 10.00 Overcast OVC110 50 41.9 74% 47 29.94 0.0
07 10:15 SW 3 10.00 Overcast SCT025 BKN060 OVC110 48.2 40.3 74% 29.94 0.0
Date Time (cdt) Wind (mph) Vis. (mi.) Weather Sky Cond. Air Dwpt Max. Min. Relative Humidity Wind Chill (°F) Heat Index (°F) altimeter (in) sea level (mb) 1 hr 3 hr 6 hr
6 hour
Temperature (ºF) Pressure Precipitation (in)